createdAt,value
2018-07-11T00:01:21.262Z,35.27
2018-07-11T00:03:52.872Z,28.95
2018-07-11T00:06:22.676Z,29.07
2018-07-11T00:08:51.171Z,29.40
2018-07-11T00:11:19.690Z,24.83
2018-07-11T00:13:48.738Z,25.90
2018-07-11T00:16:17.764Z,31.47
2018-07-11T00:18:46.271Z,23.97
2018-07-11T00:21:15.286Z,38.80
2018-07-11T00:23:43.818Z,37.63
2018-07-11T00:26:12.811Z,31.23
2018-07-11T00:28:41.868Z,30.50
2018-07-11T00:31:10.347Z,28.83
2018-07-11T00:33:39.252Z,30.80
2018-07-11T00:36:08.448Z,33.93
2018-07-11T00:38:36.985Z,28.80
2018-07-11T00:41:06.567Z,27.90
2018-07-11T00:43:35.809Z,32.75
2018-07-11T00:46:05.350Z,25.90
2018-07-11T00:48:34.354Z,26.87
2018-07-11T00:51:03.508Z,31.23
2018-07-11T00:53:34.176Z,31.83
2018-07-11T00:56:03.305Z,27.57
2018-07-11T00:58:34.455Z,35.13
2018-07-11T01:01:10.870Z,37.60
2018-07-11T01:03:43.664Z,23.43
2018-07-11T01:06:12.500Z,26.37
2018-07-11T01:08:41.802Z,30.02
2018-07-11T01:11:14.428Z,23.17
2018-07-11T01:13:44.090Z,30.23
2018-07-11T01:16:13.828Z,23.30
2018-07-11T01:18:50.663Z,28.20
2018-07-11T01:21:19.321Z,24.93
2018-07-11T01:23:47.881Z,24.73
2018-07-11T01:26:16.736Z,25.87
2018-07-11T01:28:45.651Z,24.27
2018-07-11T01:31:14.223Z,18.80
2018-07-11T01:33:42.878Z,20.90
2018-07-11T01:36:11.332Z,22.47
2018-07-11T01:38:39.869Z,26.27
2018-07-11T01:41:08.779Z,24.00
2018-07-11T01:43:37.259Z,23.93
2018-07-11T01:46:06.182Z,24.70
2018-07-11T01:48:34.706Z,27.77
2018-07-11T01:51:03.520Z,33.50
2018-07-11T01:53:32.116Z,32.23
2018-07-11T01:56:00.879Z,30.57
2018-07-11T01:58:29.566Z,31.87
2018-07-11T02:00:58.102Z,35.53
2018-07-11T02:03:26.671Z,36.28
2018-07-11T02:05:55.480Z,38.47
2018-07-11T02:08:25.316Z,43.13
2018-07-11T02:10:54.146Z,45.33
2018-07-11T02:13:22.681Z,44.63
2018-07-11T02:15:52.271Z,46.40
2018-07-11T02:18:24.548Z,47.67
2018-07-11T02:20:53.465Z,50.17
2018-07-11T02:23:22.744Z,49.83
2018-07-11T02:25:51.315Z,51.90
2018-07-11T02:28:20.548Z,60.90
2018-07-11T02:30:49.082Z,55.90
2018-07-11T02:33:17.604Z,62.17
2018-07-11T02:35:46.088Z,70.30
2018-07-11T02:38:14.994Z,77.73
2018-07-11T02:40:44.426Z,72.67
2018-07-11T02:43:12.871Z,73.83
2018-07-11T02:45:41.345Z,89.93
2018-07-11T02:48:09.832Z,84.10
2018-07-11T02:50:38.340Z,96.92
2018-07-11T02:53:06.827Z,83.67
2018-07-11T02:55:35.329Z,77.07
2018-07-11T02:58:03.801Z,78.10
2018-07-11T03:00:32.236Z,60.10
2018-07-11T03:03:00.735Z,68.70
2018-07-11T03:05:29.180Z,57.27
2018-07-11T03:07:57.700Z,43.20
2018-07-11T03:10:26.171Z,37.20
2018-07-11T03:12:55.026Z,42.58
2018-07-11T03:15:23.478Z,37.97
2018-07-11T03:17:51.925Z,48.13
2018-07-11T03:20:20.428Z,39.70
2018-07-11T03:22:49.529Z,41.57
2018-07-11T03:25:18.035Z,45.83
2018-07-11T03:27:47.210Z,38.80
2018-07-11T03:30:15.728Z,45.13
2018-07-11T03:32:44.164Z,41.00
2018-07-11T03:35:12.575Z,44.20
2018-07-11T03:37:41.096Z,46.97
2018-07-11T03:40:09.515Z,48.45
2018-07-11T03:42:38.267Z,53.77
2018-07-11T03:45:07.087Z,57.93
2018-07-11T03:47:36.083Z,61.57
2018-07-11T03:50:04.596Z,68.67
2018-07-11T03:52:33.054Z,74.37
2018-07-11T03:55:01.511Z,66.07
2018-07-11T03:57:29.998Z,63.23
2018-07-11T03:59:58.452Z,56.53
2018-07-11T04:02:26.935Z,55.13
2018-07-11T04:04:55.394Z,59.83
2018-07-11T04:07:23.819Z,64.13
2018-07-11T04:09:54.172Z,55.40
2018-07-11T04:12:22.577Z,57.20
2018-07-11T04:14:51.047Z,55.87
2018-07-11T04:17:19.489Z,51.00
2018-07-11T04:19:48.248Z,53.03
2018-07-11T04:22:16.696Z,53.53
2018-07-11T04:24:45.180Z,60.33
2018-07-11T04:27:13.627Z,52.67
2018-07-11T04:29:42.089Z,54.40
2018-07-11T04:32:10.545Z,51.73
2018-07-11T04:34:39.050Z,53.00
2018-07-11T04:37:07.496Z,53.13
2018-07-11T04:39:35.965Z,56.43
2018-07-11T04:42:04.444Z,63.40
2018-07-11T04:44:33.380Z,62.33
2018-07-11T04:47:01.851Z,57.87
2018-07-11T04:49:30.296Z,62.37
2018-07-11T04:51:58.764Z,53.80
2018-07-11T04:54:27.339Z,54.63
2018-07-11T04:56:55.801Z,58.17
2018-07-11T04:59:24.214Z,68.87
2018-07-11T05:01:52.683Z,61.47
2018-07-11T05:04:21.201Z,52.17
2018-07-11T05:06:49.698Z,58.53
2018-07-11T05:09:18.108Z,56.58
2018-07-11T05:11:46.567Z,46.97
2018-07-11T05:14:15.003Z,63.90
2018-07-11T05:16:43.482Z,51.70
2018-07-11T05:19:11.888Z,49.93
2018-07-11T05:21:40.347Z,40.00
2018-07-11T05:24:08.752Z,49.47
2018-07-11T05:26:37.195Z,38.23
2018-07-11T05:29:05.785Z,34.30
2018-07-11T05:31:34.262Z,32.27
2018-07-11T05:34:02.732Z,35.97
2018-07-11T05:36:31.445Z,33.43
2018-07-11T05:39:00.018Z,31.93
2018-07-11T05:41:28.849Z,26.63
2018-07-11T05:43:57.797Z,28.33
2018-07-11T05:46:26.279Z,31.57
2018-07-11T05:48:54.691Z,33.57
2018-07-11T05:51:23.163Z,25.80
2018-07-11T05:53:51.679Z,28.17
2018-07-11T05:56:20.116Z,21.53
2018-07-11T05:58:48.607Z,28.23
2018-07-11T06:01:17.094Z,30.40
2018-07-11T06:03:45.499Z,28.97
2018-07-11T06:06:13.969Z,24.90
2018-07-11T06:08:42.384Z,27.70
2018-07-11T06:11:22.302Z,26.50
2018-07-11T06:13:51.607Z,29.13
2018-07-11T06:16:20.083Z,24.00
2018-07-11T06:18:49.001Z,26.63
2018-07-11T06:21:17.476Z,26.00
2018-07-11T06:23:46.015Z,30.50
2018-07-11T06:26:14.426Z,31.43
2018-07-11T06:28:42.859Z,34.85
2018-07-11T06:31:12.155Z,33.80
2018-07-11T06:33:40.602Z,32.83
2018-07-11T06:36:09.223Z,35.83
2018-07-11T06:38:38.389Z,37.30
2018-07-11T06:41:06.900Z,34.00
2018-07-11T06:43:35.636Z,32.85
2018-07-11T06:46:04.334Z,32.73
2018-07-11T06:48:32.795Z,28.10
2018-07-11T06:51:01.244Z,30.48
2018-07-11T06:53:29.772Z,29.17
2018-07-11T06:55:58.226Z,29.27
2018-07-11T06:58:26.659Z,28.50
2018-07-11T07:00:55.252Z,33.77
2018-07-11T07:03:23.727Z,27.20
2018-07-11T07:05:52.197Z,28.47
2018-07-11T07:08:20.647Z,28.87
2018-07-11T07:10:49.348Z,27.20
2018-07-11T07:13:17.902Z,26.57
2018-07-11T07:15:46.347Z,26.65
2018-07-11T07:18:14.790Z,27.77
2018-07-11T07:20:43.228Z,32.70
2018-07-11T07:23:11.689Z,23.03
2018-07-11T07:25:40.273Z,23.40
2018-07-11T07:28:08.691Z,24.20
2018-07-11T07:30:37.173Z,24.57
2018-07-11T07:33:05.632Z,24.20
2018-07-11T07:35:34.098Z,22.93
2018-07-11T07:38:02.622Z,23.07
2018-07-11T07:40:31.222Z,21.97
2018-07-11T07:42:59.854Z,23.47
2018-07-11T07:45:28.360Z,24.63
2018-07-11T07:47:57.568Z,30.37
2018-07-11T07:50:26.105Z,24.37
2018-07-11T07:52:54.937Z,27.83
2018-07-11T07:55:23.391Z,25.87
2018-07-11T07:57:52.045Z,24.00
2018-07-11T08:00:20.907Z,23.57
2018-07-11T08:02:49.402Z,22.00
2018-07-11T08:05:17.889Z,27.67
2018-07-11T08:07:46.338Z,20.13
2018-07-11T08:10:14.792Z,22.30
2018-07-11T08:12:43.363Z,24.13
2018-07-11T08:15:11.701Z,23.50
2018-07-11T08:17:40.201Z,22.67
2018-07-11T08:20:08.623Z,21.90
2018-07-11T08:24:49.712Z,24.85
2018-07-11T08:29:34.775Z,20.90
2018-07-11T08:32:50.276Z,22.10
2018-07-11T08:35:28.735Z,23.43
2018-07-11T08:40:11.338Z,25.30
2018-07-11T08:46:05.632Z,19.53
2018-07-11T08:48:49.200Z,21.30
2018-07-11T08:51:32.344Z,18.70
2018-07-11T08:56:18.231Z,19.63
2018-07-11T09:00:59.216Z,17.05
2018-07-11T09:03:38.744Z,17.30
2018-07-11T09:06:17.007Z,15.77
2018-07-11T09:09:27.635Z,16.47
2018-07-11T09:12:09.039Z,18.23
2018-07-11T09:17:22.064Z,14.23
2018-07-11T09:20:16.911Z,16.85
2018-07-11T09:23:26.371Z,16.77
2018-07-11T09:25:54.821Z,20.10
2018-07-11T09:28:23.269Z,15.53
2018-07-11T09:30:51.768Z,17.50
2018-07-11T09:33:20.483Z,15.00
2018-07-11T09:35:48.907Z,15.50
2018-07-11T09:38:17.651Z,16.93
2018-07-11T09:40:46.180Z,19.97
2018-07-11T09:43:14.652Z,16.03
2018-07-11T09:45:43.572Z,15.37
2018-07-11T09:48:12.032Z,16.03
2018-07-11T09:50:40.537Z,15.00
2018-07-11T09:53:09.044Z,14.03
2018-07-11T09:55:37.789Z,14.80
2018-07-11T09:58:06.474Z,15.33
2018-07-11T10:00:40.022Z,15.73
2018-07-11T10:03:08.466Z,16.03
2018-07-11T10:05:36.984Z,17.53
2018-07-11T10:08:08.863Z,17.80
2018-07-11T10:10:37.511Z,18.80
2018-07-11T10:13:06.443Z,17.90
2018-07-11T10:15:34.916Z,17.30
2018-07-11T10:18:03.427Z,19.00
2018-07-11T10:20:31.930Z,15.40
2018-07-11T10:23:00.431Z,15.50
2018-07-11T10:25:28.879Z,19.47
2018-07-11T10:28:08.772Z,15.67
2018-07-11T10:30:37.240Z,19.25
2018-07-11T10:33:05.693Z,15.10
2018-07-11T10:35:34.139Z,18.87
2018-07-11T10:38:02.675Z,19.47
2018-07-11T10:40:31.126Z,17.30
2018-07-11T10:42:59.628Z,18.17
2018-07-11T10:45:28.725Z,19.03
2018-07-11T10:47:57.164Z,18.85
2018-07-11T10:50:25.650Z,21.33
2018-07-11T10:52:54.549Z,19.13
2018-07-11T10:55:23.034Z,22.43
2018-07-11T10:57:51.972Z,24.10
2018-07-11T11:00:36.669Z,19.77
2018-07-11T11:02:55.333Z,18.05
2018-07-11T11:05:23.827Z,19.40
2018-07-11T11:07:53.041Z,18.17
2018-07-11T11:10:21.623Z,19.00
2018-07-11T11:12:50.089Z,19.32
2018-07-11T11:15:18.769Z,17.30
2018-07-11T11:17:47.187Z,16.80
2018-07-11T11:20:15.599Z,21.50
2018-07-11T11:22:44.336Z,18.97
2018-07-11T11:25:12.796Z,18.47
2018-07-11T11:27:41.416Z,23.43
2018-07-11T11:30:09.843Z,23.03
2018-07-11T11:32:38.479Z,17.70
2018-07-11T11:35:07.023Z,21.00
2018-07-11T11:37:35.447Z,18.07
2018-07-11T11:40:03.970Z,19.43
2018-07-11T11:42:32.732Z,15.43
2018-07-11T11:45:00.912Z,13.27
2018-07-11T11:47:29.368Z,14.07
2018-07-11T11:49:58.406Z,12.27
2018-07-11T11:52:26.864Z,15.00
2018-07-11T11:54:55.376Z,16.43
2018-07-11T11:57:24.074Z,15.20
2018-07-11T11:59:52.761Z,16.03
2018-07-11T12:02:21.440Z,16.20
2018-07-11T12:04:50.119Z,25.30
2018-07-11T12:07:18.650Z,18.27
2018-07-11T12:09:47.262Z,16.83
2018-07-11T12:12:15.673Z,14.97
2018-07-11T12:14:44.168Z,16.90
2018-07-11T12:17:12.983Z,16.37
2018-07-11T12:19:42.417Z,16.13
2018-07-11T12:22:10.880Z,16.17
2018-07-11T12:24:39.328Z,17.27
2018-07-11T12:27:08.276Z,18.70
2018-07-11T12:29:36.740Z,19.33
2018-07-11T12:32:05.219Z,16.00
2018-07-11T12:34:33.680Z,16.10
2018-07-11T12:37:02.228Z,15.23
2018-07-11T12:39:30.747Z,15.80
2018-07-11T12:41:59.271Z,16.93
2018-07-11T12:44:28.316Z,19.70
2018-07-11T12:46:56.754Z,16.20
2018-07-11T12:49:25.611Z,16.87
2018-07-11T12:51:54.551Z,17.63
2018-07-11T12:54:22.996Z,17.63
2018-07-11T12:56:52.665Z,14.28
2018-07-11T12:59:22.891Z,13.13
2018-07-11T13:01:51.433Z,13.68
2018-07-11T13:04:19.950Z,12.80
2018-07-11T13:06:48.420Z,12.40
2018-07-11T13:09:16.888Z,11.60
2018-07-11T13:11:45.337Z,14.60
2018-07-11T13:14:13.795Z,12.00
2018-07-11T13:16:42.240Z,11.27
2018-07-11T13:19:10.876Z,13.08
2018-07-11T13:21:39.318Z,12.20
2018-07-11T13:24:06.742Z,15.50
2018-07-11T13:26:35.231Z,12.07
2018-07-11T13:29:03.700Z,12.60
2018-07-11T13:31:32.132Z,17.00
2018-07-11T13:34:00.596Z,15.30
2018-07-11T13:36:29.055Z,15.43
2018-07-11T13:38:57.651Z,16.77
2018-07-11T13:41:26.198Z,14.37
2018-07-11T13:43:54.669Z,16.20
2018-07-11T13:46:23.144Z,18.53
2018-07-11T13:48:51.628Z,16.67
2018-07-11T13:51:20.083Z,15.88
2018-07-11T13:53:48.582Z,14.70
2018-07-11T13:56:17.020Z,14.20
2018-07-11T13:58:45.815Z,11.73
2018-07-11T14:01:14.286Z,12.73
2018-07-11T14:03:43.058Z,9.70
2018-07-11T14:06:11.809Z,10.57
2018-07-11T14:08:40.325Z,11.20
2018-07-11T14:11:08.815Z,10.60
2018-07-11T14:13:37.230Z,11.10
2018-07-11T14:16:05.731Z,10.13
2018-07-11T14:18:34.179Z,8.70
2018-07-11T14:21:02.662Z,9.53
2018-07-11T14:23:40.381Z,6.17
2018-07-11T14:26:11.135Z,6.40
2018-07-11T14:28:45.492Z,5.73
2018-07-11T14:31:14.558Z,4.93
2018-07-11T14:33:48.747Z,8.00
2018-07-11T14:36:17.848Z,5.87
2018-07-11T14:38:46.864Z,6.33
2018-07-11T14:41:15.287Z,5.40
2018-07-11T14:43:44.099Z,5.23
2018-07-11T14:46:14.326Z,9.50
2018-07-11T14:48:42.787Z,4.90
2018-07-11T14:51:11.613Z,6.00
2018-07-11T14:53:40.096Z,6.33
2018-07-11T14:56:08.906Z,5.40
2018-07-11T14:58:37.342Z,8.30
2018-07-11T15:01:05.838Z,5.93
2018-07-11T15:03:34.326Z,7.30
2018-07-11T15:06:02.868Z,6.57
2018-07-11T15:08:31.451Z,6.20
2018-07-11T15:10:59.882Z,6.60
2018-07-11T15:13:28.363Z,6.47
2018-07-11T15:15:56.776Z,7.13
2018-07-11T15:18:25.236Z,5.97
2018-07-11T15:20:54.715Z,8.30
2018-07-11T15:23:23.239Z,6.80
2018-07-11T15:25:51.807Z,7.90
2018-07-11T15:28:20.268Z,6.23
2018-07-11T15:30:48.775Z,8.03
2018-07-11T15:33:17.545Z,7.50
2018-07-11T15:35:46.735Z,9.63
2018-07-11T15:38:15.230Z,9.50
2018-07-11T15:40:44.128Z,9.23
2018-07-11T15:43:12.710Z,5.87
2018-07-11T15:45:41.184Z,6.67
2018-07-11T15:48:11.394Z,6.93
2018-07-11T15:50:40.597Z,5.30
2018-07-11T15:53:09.106Z,5.87
2018-07-11T15:55:37.644Z,8.93
2018-07-11T15:58:11.629Z,6.20
2018-07-11T16:00:42.103Z,7.70
2018-07-11T16:03:13.697Z,4.97
2018-07-11T16:05:45.213Z,9.40
2018-07-11T16:08:17.988Z,6.37
2018-07-11T16:10:53.990Z,9.50
2018-07-11T16:13:22.806Z,6.50
2018-07-11T16:15:51.560Z,8.03
2018-07-11T16:18:20.399Z,5.07
2018-07-11T16:20:48.826Z,8.73
2018-07-11T16:23:17.302Z,6.33
2018-07-11T16:25:45.854Z,6.93
2018-07-11T16:28:15.144Z,5.10
2018-07-11T16:30:44.142Z,4.33
2018-07-11T16:33:12.624Z,5.33
2018-07-11T16:35:41.127Z,4.42
2018-07-11T16:38:09.663Z,4.67
2018-07-11T16:40:38.443Z,6.72
2018-07-11T16:43:06.984Z,6.40
2018-07-11T16:45:35.490Z,4.42
2018-07-11T16:48:04.233Z,5.80
2018-07-11T16:50:32.739Z,4.07
2018-07-11T16:53:01.746Z,8.57
2018-07-11T16:55:32.887Z,5.27
2018-07-11T16:58:01.603Z,5.87
2018-07-11T17:00:32.986Z,4.33
2018-07-11T17:03:06.964Z,6.70
2018-07-11T17:06:11.517Z,4.67
2018-07-11T17:08:47.660Z,5.80
2018-07-11T17:11:21.224Z,5.90
2018-07-11T17:14:05.768Z,8.90
2018-07-11T17:16:39.663Z,5.63
2018-07-11T17:19:10.409Z,6.43
2018-07-11T17:21:43.394Z,7.95
2018-07-11T17:24:13.564Z,7.33
2018-07-11T17:26:44.086Z,4.70
2018-07-11T17:29:18.643Z,4.93
2018-07-11T17:31:48.212Z,5.35
2018-07-11T17:34:17.660Z,5.90
2018-07-11T17:36:46.178Z,6.87
2018-07-11T17:39:16.184Z,5.97
2018-07-11T17:41:47.379Z,6.40
2018-07-11T17:44:16.785Z,7.23
2018-07-11T17:46:46.491Z,5.75
2018-07-11T17:49:18.502Z,4.90
2018-07-11T17:52:18.015Z,7.35
2018-07-11T17:55:23.280Z,4.60
2018-07-11T17:57:55.876Z,6.63
2018-07-11T18:00:46.392Z,12.63
2018-07-11T18:05:28.552Z,7.37
2018-07-11T18:08:01.175Z,6.43
2018-07-11T18:10:49.384Z,7.10
2018-07-11T18:13:28.937Z,8.23
2018-07-11T18:17:06.428Z,12.37
2018-07-11T18:19:47.726Z,8.40
2018-07-11T18:24:30.668Z,8.10
2018-07-11T18:27:06.638Z,6.30
2018-07-11T18:29:44.939Z,10.57
2018-07-11T18:32:50.594Z,8.60
2018-07-11T18:35:26.568Z,8.37
2018-07-11T18:37:57.590Z,9.03
2018-07-11T18:40:43.025Z,10.20
2018-07-11T18:43:22.611Z,16.73
2018-07-11T18:46:13.535Z,8.45
2018-07-11T18:48:56.606Z,8.37
2018-07-11T18:51:34.452Z,8.27
2018-07-11T18:54:11.695Z,7.97
2018-07-11T18:56:53.178Z,12.10
2018-07-11T18:59:32.765Z,10.33
2018-07-11T19:02:27.576Z,7.90
2018-07-11T19:05:06.849Z,16.77
2018-07-11T19:07:42.636Z,13.37
2018-07-11T19:10:16.284Z,11.40
2018-07-11T19:13:01.195Z,10.73
2018-07-11T19:15:46.456Z,10.57
2018-07-11T19:18:23.864Z,9.90
2018-07-11T19:22:00.950Z,9.75
2018-07-11T19:24:38.776Z,12.73
2018-07-11T19:27:17.229Z,8.97
2018-07-11T19:29:56.678Z,10.80
2018-07-11T19:32:33.183Z,12.07
2018-07-11T19:35:16.276Z,17.40
2018-07-11T19:38:08.732Z,12.17
2018-07-11T19:40:47.955Z,17.82
2018-07-11T19:43:44.690Z,11.40
2018-07-11T19:46:37.168Z,10.15
2018-07-11T19:49:21.243Z,19.73
2018-07-11T19:52:08.889Z,11.67
2018-07-11T19:55:30.499Z,12.53
2018-07-11T19:57:59.791Z,14.75
2018-07-11T20:03:14.276Z,12.53
2018-07-11T20:05:53.341Z,11.60
2018-07-11T20:08:11.633Z,13.93
2018-07-11T20:10:40.535Z,14.35
2018-07-11T20:13:09.007Z,10.30
2018-07-11T20:15:37.891Z,19.00
2018-07-11T20:18:06.808Z,10.33
2018-07-11T20:20:35.183Z,13.25
2018-07-11T20:23:03.863Z,19.80
2018-07-11T20:25:32.346Z,17.40
2018-07-11T20:28:00.858Z,11.33
2018-07-11T20:30:29.573Z,16.77
2018-07-11T20:32:57.957Z,13.20
2018-07-11T20:35:26.839Z,12.87
2018-07-11T20:37:55.344Z,14.37
2018-07-11T20:40:23.798Z,21.00
2018-07-11T20:42:52.939Z,17.30
2018-07-11T20:45:21.421Z,12.73
2018-07-11T20:47:49.929Z,14.83
2018-07-11T20:50:19.335Z,16.03
2018-07-11T20:52:47.783Z,26.70
2018-07-11T20:55:16.255Z,12.95
2018-07-11T20:57:44.727Z,14.30
2018-07-11T21:00:24.400Z,15.08
2018-07-11T21:03:04.495Z,20.17
2018-07-11T21:05:47.454Z,16.10
2018-07-11T21:10:28.047Z,15.93
2018-07-11T21:13:13.429Z,15.03
2018-07-11T21:15:55.496Z,22.77
2018-07-11T21:18:37.551Z,13.03
2018-07-11T21:21:06.014Z,13.87
2018-07-11T21:23:34.485Z,19.30
2018-07-11T21:26:03.205Z,15.13
2018-07-11T21:28:31.738Z,14.13
2018-07-11T21:31:00.744Z,12.28
2018-07-11T21:33:29.617Z,23.30
2018-07-11T21:35:58.090Z,12.45
2018-07-11T21:38:27.073Z,13.00
2018-07-11T21:40:55.550Z,15.43
2018-07-11T21:43:24.088Z,14.23
2018-07-11T21:45:52.613Z,15.50
2018-07-11T21:48:21.093Z,12.77
2018-07-11T21:50:49.564Z,14.13
2018-07-11T21:53:17.999Z,15.45
2018-07-11T21:55:46.652Z,14.73
2018-07-11T21:58:15.171Z,11.87
2018-07-11T22:00:43.751Z,12.60
2018-07-11T22:03:12.202Z,12.10
2018-07-11T22:05:40.699Z,15.80
2018-07-11T22:08:09.760Z,11.60
2018-07-11T22:10:39.619Z,16.53
2018-07-11T22:13:08.711Z,12.83
2018-07-11T22:15:37.226Z,12.40
2018-07-11T22:18:17.106Z,12.93
2018-07-11T22:20:44.347Z,12.40
2018-07-11T22:23:11.612Z,11.80
2018-07-11T22:25:38.877Z,12.03
2018-07-11T22:28:06.425Z,13.68
2018-07-11T22:30:34.031Z,11.50
2018-07-11T22:33:01.269Z,12.37
2018-07-11T22:35:28.514Z,12.07
2018-07-11T22:37:55.756Z,16.40
2018-07-11T22:40:22.988Z,17.03
2018-07-11T22:42:50.453Z,19.27
2018-07-11T22:45:17.691Z,12.93
2018-07-11T22:47:44.970Z,15.20
2018-07-11T22:50:12.196Z,19.67
2018-07-11T22:52:39.558Z,11.47
2018-07-11T22:55:06.775Z,17.63
2018-07-11T22:57:34.044Z,18.40
2018-07-11T23:00:01.460Z,15.45
2018-07-11T23:02:28.695Z,15.60
2018-07-11T23:04:55.997Z,12.97
2018-07-11T23:07:23.231Z,18.35
2018-07-11T23:09:50.474Z,19.33
2018-07-11T23:12:17.731Z,15.90
2018-07-11T23:14:44.975Z,16.33
2018-07-11T23:17:12.838Z,17.65
2018-07-11T23:19:43.202Z,17.10
2018-07-11T23:22:10.751Z,19.10
2018-07-11T23:24:38.337Z,19.77
2018-07-11T23:27:05.592Z,15.03
2018-07-11T23:29:32.866Z,14.70
2018-07-11T23:32:00.213Z,18.00
2018-07-11T23:34:27.478Z,16.13
2018-07-11T23:36:55.399Z,19.30
2018-07-11T23:39:22.659Z,23.07
2018-07-11T23:41:50.120Z,17.97
2018-07-11T23:44:17.379Z,20.50
2018-07-11T23:46:44.608Z,18.57
2018-07-11T23:49:11.877Z,20.03
2018-07-11T23:51:39.096Z,17.37
2018-07-11T23:54:06.386Z,16.90
2018-07-11T23:56:33.629Z,20.08
2018-07-11T23:59:00.874Z,19.20
